sensor_id;sensor_type;location;lat;lon;timestamp;P1;durP1;ratioP1;P2;durP2;ratioP2
16031;SDS011;8120;48.308;8.914;2023-02-28T00:01:11;6.30;;;3.93;;
16031;SDS011;8120;48.308;8.914;2023-02-28T00:03:40;5.70;;;3.73;;
16031;SDS011;8120;48.308;8.914;2023-02-28T00:06:09;5.03;;;3.50;;
16031;SDS011;8120;48.308;8.914;2023-02-28T00:08:37;4.20;;;3.07;;
16031;SDS011;8120;48.308;8.914;2023-02-28T00:11:07;5.07;;;3.60;;
16031;SDS011;8120;48.308;8.914;2023-02-28T00:13:37;4.17;;;3.00;;
16031;SDS011;8120;48.308;8.914;2023-02-28T00:16:08;5.57;;;3.07;;
16031;SDS011;8120;48.308;8.914;2023-02-28T00:18:37;5.33;;;3.53;;
16031;SDS011;8120;48.308;8.914;2023-02-28T00:21:07;4.70;;;3.07;;
16031;SDS011;8120;48.308;8.914;2023-02-28T00:23:36;3.47;;;2.63;;
16031;SDS011;8120;48.308;8.914;2023-02-28T00:26:04;4.97;;;3.20;;
16031;SDS011;8120;48.308;8.914;2023-02-28T00:28:32;3.43;;;2.80;;
16031;SDS011;8120;48.308;8.914;2023-02-28T00:31:00;6.73;;;3.20;;
16031;SDS011;8120;48.308;8.914;2023-02-28T00:33:28;2.27;;;1.93;;
16031;SDS011;8120;48.308;8.914;2023-02-28T00:36:07;2.27;;;1.80;;
16031;SDS011;8120;48.308;8.914;2023-02-28T00:38:37;5.83;;;3.53;;
16031;SDS011;8120;48.308;8.914;2023-02-28T00:41:06;3.27;;;2.47;;
16031;SDS011;8120;48.308;8.914;2023-02-28T00:43:35;5.10;;;2.80;;
16031;SDS011;8120;48.308;8.914;2023-02-28T00:46:04;6.60;;;2.57;;
16031;SDS011;8120;48.308;8.914;2023-02-28T00:48:33;3.23;;;2.00;;
16031;SDS011;8120;48.308;8.914;2023-02-28T00:51:01;3.23;;;1.93;;
16031;SDS011;8120;48.308;8.914;2023-02-28T00:53:30;3.20;;;2.40;;
16031;SDS011;8120;48.308;8.914;2023-02-28T00:55:58;6.03;;;3.10;;
16031;SDS011;8120;48.308;8.914;2023-02-28T00:58:26;4.93;;;3.30;;
16031;SDS011;8120;48.308;8.914;2023-02-28T01:00:55;6.00;;;3.17;;
16031;SDS011;8120;48.308;8.914;2023-02-28T01:03:26;5.60;;;3.50;;
16031;SDS011;8120;48.308;8.914;2023-02-28T01:05:54;3.93;;;2.30;;
16031;SDS011;8120;48.308;8.914;2023-02-28T01:08:22;7.40;;;2.53;;
16031;SDS011;8120;48.308;8.914;2023-02-28T01:10:51;3.77;;;2.50;;
16031;SDS011;8120;48.308;8.914;2023-02-28T01:13:19;9.80;;;3.07;;
16031;SDS011;8120;48.308;8.914;2023-02-28T01:15:50;2.67;;;2.20;;
16031;SDS011;8120;48.308;8.914;2023-02-28T01:18:20;6.60;;;2.70;;
16031;SDS011;8120;48.308;8.914;2023-02-28T01:20:50;3.63;;;2.37;;
16031;SDS011;8120;48.308;8.914;2023-02-28T01:23:19;2.67;;;1.93;;
16031;SDS011;8120;48.308;8.914;2023-02-28T01:25:47;5.13;;;3.07;;
16031;SDS011;8120;48.308;8.914;2023-02-28T01:28:17;3.80;;;2.67;;
16031;SDS011;8120;48.308;8.914;2023-02-28T01:30:47;3.93;;;2.40;;
16031;SDS011;8120;48.308;8.914;2023-02-28T01:33:16;3.97;;;2.57;;
16031;SDS011;8120;48.308;8.914;2023-02-28T01:35:44;4.40;;;2.13;;
16031;SDS011;8120;48.308;8.914;2023-02-28T01:38:11;6.07;;;3.30;;
16031;SDS011;8120;48.308;8.914;2023-02-28T01:40:48;5.30;;;3.30;;
16031;SDS011;8120;48.308;8.914;2023-02-28T01:43:19;5.50;;;3.30;;
16031;SDS011;8120;48.308;8.914;2023-02-28T01:45:49;6.60;;;3.37;;
16031;SDS011;8120;48.308;8.914;2023-02-28T01:48:17;4.23;;;2.60;;
16031;SDS011;8120;48.308;8.914;2023-02-28T01:50:46;5.20;;;3.80;;
16031;SDS011;8120;48.308;8.914;2023-02-28T01:53:16;2.90;;;2.17;;
16031;SDS011;8120;48.308;8.914;2023-02-28T01:55:46;6.10;;;2.87;;
16031;SDS011;8120;48.308;8.914;2023-02-28T01:58:18;4.83;;;3.00;;
16031;SDS011;8120;48.308;8.914;2023-02-28T02:00:47;3.90;;;2.63;;
16031;SDS011;8120;48.308;8.914;2023-02-28T02:03:15;3.70;;;1.90;;
16031;SDS011;8120;48.308;8.914;2023-02-28T02:05:46;5.20;;;3.23;;
16031;SDS011;8120;48.308;8.914;2023-02-28T02:08:17;2.70;;;1.60;;
16031;SDS011;8120;48.308;8.914;2023-02-28T02:11:02;4.93;;;2.57;;
16031;SDS011;8120;48.308;8.914;2023-02-28T02:13:48;3.33;;;2.10;;
16031;SDS011;8120;48.308;8.914;2023-02-28T02:16:30;3.57;;;2.50;;
16031;SDS011;8120;48.308;8.914;2023-02-28T02:19:14;4.10;;;2.80;;
16031;SDS011;8120;48.308;8.914;2023-02-28T02:22:06;4.30;;;2.53;;
16031;SDS011;8120;48.308;8.914;2023-02-28T02:24:48;5.83;;;3.23;;
16031;SDS011;8120;48.308;8.914;2023-02-28T02:27:33;4.90;;;3.30;;
16031;SDS011;8120;48.308;8.914;2023-02-28T02:30:29;4.70;;;2.90;;
16031;SDS011;8120;48.308;8.914;2023-02-28T02:33:18;2.30;;;1.67;;
16031;SDS011;8120;48.308;8.914;2023-02-28T02:36:05;6.83;;;3.47;;
16031;SDS011;8120;48.308;8.914;2023-02-28T02:38:37;6.67;;;4.10;;
16031;SDS011;8120;48.308;8.914;2023-02-28T02:41:12;6.80;;;3.20;;
16031;SDS011;8120;48.308;8.914;2023-02-28T02:43:44;2.97;;;2.10;;
16031;SDS011;8120;48.308;8.914;2023-02-28T02:46:17;2.47;;;2.17;;
16031;SDS011;8120;48.308;8.914;2023-02-28T02:48:48;4.93;;;3.07;;
16031;SDS011;8120;48.308;8.914;2023-02-28T02:51:20;4.83;;;3.33;;
16031;SDS011;8120;48.308;8.914;2023-02-28T02:53:51;4.27;;;2.57;;
16031;SDS011;8120;48.308;8.914;2023-02-28T02:56:23;4.77;;;3.23;;
16031;SDS011;8120;48.308;8.914;2023-02-28T02:58:53;3.83;;;2.53;;
16031;SDS011;8120;48.308;8.914;2023-02-28T03:01:24;8.43;;;3.73;;
16031;SDS011;8120;48.308;8.914;2023-02-28T03:06:23;5.63;;;3.50;;
16031;SDS011;8120;48.308;8.914;2023-02-28T03:08:51;3.63;;;2.17;;
16031;SDS011;8120;48.308;8.914;2023-02-28T03:11:19;4.33;;;2.80;;
16031;SDS011;8120;48.308;8.914;2023-02-28T03:13:52;6.57;;;3.87;;
16031;SDS011;8120;48.308;8.914;2023-02-28T03:16:34;5.70;;;3.43;;
16031;SDS011;8120;48.308;8.914;2023-02-28T03:19:17;3.53;;;2.70;;
16031;SDS011;8120;48.308;8.914;2023-02-28T03:22:01;7.40;;;3.50;;
16031;SDS011;8120;48.308;8.914;2023-02-28T03:24:43;4.67;;;2.70;;
16031;SDS011;8120;48.308;8.914;2023-02-28T03:27:17;6.17;;;3.70;;
16031;SDS011;8120;48.308;8.914;2023-02-28T03:29:51;8.40;;;3.47;;
16031;SDS011;8120;48.308;8.914;2023-02-28T03:32:26;3.97;;;2.60;;
16031;SDS011;8120;48.308;8.914;2023-02-28T03:34:58;5.47;;;2.63;;
16031;SDS011;8120;48.308;8.914;2023-02-28T03:37:33;6.20;;;3.60;;
16031;SDS011;8120;48.308;8.914;2023-02-28T03:40:04;6.37;;;3.33;;
16031;SDS011;8120;48.308;8.914;2023-02-28T03:42:39;5.43;;;3.33;;
16031;SDS011;8120;48.308;8.914;2023-02-28T03:45:11;4.13;;;2.60;;
16031;SDS011;8120;48.308;8.914;2023-02-28T03:47:43;3.90;;;2.33;;
16031;SDS011;8120;48.308;8.914;2023-02-28T03:50:16;5.33;;;3.07;;
16031;SDS011;8120;48.308;8.914;2023-02-28T03:52:49;4.13;;;3.07;;
16031;SDS011;8120;48.308;8.914;2023-02-28T03:55:20;6.47;;;3.00;;
16031;SDS011;8120;48.308;8.914;2023-02-28T03:57:51;5.33;;;3.63;;
16031;SDS011;8120;48.308;8.914;2023-02-28T04:00:25;3.23;;;2.43;;
16031;SDS011;8120;48.308;8.914;2023-02-28T04:02:58;6.63;;;3.60;;
16031;SDS011;8120;48.308;8.914;2023-02-28T04:05:26;7.20;;;3.37;;
16031;SDS011;8120;48.308;8.914;2023-02-28T04:08:04;7.60;;;4.23;;
16031;SDS011;8120;48.308;8.914;2023-02-28T04:10:32;4.73;;;2.77;;
16031;SDS011;8120;48.308;8.914;2023-02-28T04:13:00;4.83;;;3.17;;
16031;SDS011;8120;48.308;8.914;2023-02-28T04:15:28;4.40;;;2.97;;
16031;SDS011;8120;48.308;8.914;2023-02-28T04:17:56;5.50;;;3.87;;
16031;SDS011;8120;48.308;8.914;2023-02-28T04:20:24;7.37;;;3.67;;
16031;SDS011;8120;48.308;8.914;2023-02-28T04:22:52;4.97;;;2.90;;
16031;SDS011;8120;48.308;8.914;2023-02-28T04:25:21;7.57;;;3.97;;
16031;SDS011;8120;48.308;8.914;2023-02-28T04:27:49;5.17;;;3.20;;
16031;SDS011;8120;48.308;8.914;2023-02-28T04:30:16;5.43;;;2.70;;
16031;SDS011;8120;48.308;8.914;2023-02-28T04:32:44;4.50;;;3.13;;
16031;SDS011;8120;48.308;8.914;2023-02-28T04:35:12;6.43;;;3.80;;
16031;SDS011;8120;48.308;8.914;2023-02-28T04:37:40;7.27;;;4.60;;
16031;SDS011;8120;48.308;8.914;2023-02-28T04:40:08;5.77;;;3.57;;
16031;SDS011;8120;48.308;8.914;2023-02-28T04:42:38;7.63;;;4.00;;
16031;SDS011;8120;48.308;8.914;2023-02-28T04:45:06;6.93;;;2.77;;
16031;SDS011;8120;48.308;8.914;2023-02-28T04:47:36;7.07;;;4.10;;
16031;SDS011;8120;48.308;8.914;2023-02-28T04:50:04;4.97;;;2.67;;
16031;SDS011;8120;48.308;8.914;2023-02-28T04:52:32;4.20;;;3.20;;
16031;SDS011;8120;48.308;8.914;2023-02-28T04:55:00;6.07;;;3.43;;
16031;SDS011;8120;48.308;8.914;2023-02-28T04:57:28;5.83;;;2.57;;
16031;SDS011;8120;48.308;8.914;2023-02-28T04:59:57;5.83;;;3.53;;
16031;SDS011;8120;48.308;8.914;2023-02-28T05:02:25;6.97;;;4.63;;
16031;SDS011;8120;48.308;8.914;2023-02-28T05:04:53;6.60;;;4.50;;
16031;SDS011;8120;48.308;8.914;2023-02-28T05:07:21;7.63;;;3.50;;
16031;SDS011;8120;48.308;8.914;2023-02-28T05:09:48;6.30;;;3.73;;
16031;SDS011;8120;48.308;8.914;2023-02-28T05:12:16;9.33;;;5.03;;
16031;SDS011;8120;48.308;8.914;2023-02-28T05:14:44;5.17;;;3.40;;
16031;SDS011;8120;48.308;8.914;2023-02-28T05:17:13;5.90;;;4.37;;
16031;SDS011;8120;48.308;8.914;2023-02-28T05:19:41;4.73;;;2.23;;
16031;SDS011;8120;48.308;8.914;2023-02-28T05:22:12;7.47;;;5.37;;
16031;SDS011;8120;48.308;8.914;2023-02-28T05:24:41;6.47;;;3.90;;
16031;SDS011;8120;48.308;8.914;2023-02-28T05:27:10;7.17;;;4.43;;
16031;SDS011;8120;48.308;8.914;2023-02-28T05:29:37;7.07;;;4.30;;
16031;SDS011;8120;48.308;8.914;2023-02-28T05:32:09;8.20;;;4.40;;
16031;SDS011;8120;48.308;8.914;2023-02-28T05:34:39;7.20;;;4.20;;
16031;SDS011;8120;48.308;8.914;2023-02-28T05:37:10;7.23;;;4.23;;
16031;SDS011;8120;48.308;8.914;2023-02-28T05:39:39;7.00;;;4.60;;
16031;SDS011;8120;48.308;8.914;2023-02-28T05:42:07;12.67;;;5.10;;
16031;SDS011;8120;48.308;8.914;2023-02-28T05:44:35;6.03;;;3.23;;
16031;SDS011;8120;48.308;8.914;2023-02-28T05:47:03;7.93;;;4.53;;
16031;SDS011;8120;48.308;8.914;2023-02-28T05:49:31;11.90;;;5.20;;
16031;SDS011;8120;48.308;8.914;2023-02-28T05:52:00;7.13;;;4.93;;
16031;SDS011;8120;48.308;8.914;2023-02-28T05:54:28;8.17;;;5.40;;
16031;SDS011;8120;48.308;8.914;2023-02-28T05:56:55;8.20;;;4.37;;
16031;SDS011;8120;48.308;8.914;2023-02-28T05:59:23;8.27;;;5.40;;
16031;SDS011;8120;48.308;8.914;2023-02-28T06:01:51;7.00;;;4.40;;
16031;SDS011;8120;48.308;8.914;2023-02-28T06:04:20;9.50;;;5.20;;
16031;SDS011;8120;48.308;8.914;2023-02-28T06:06:57;8.03;;;4.60;;
16031;SDS011;8120;48.308;8.914;2023-02-28T06:09:27;7.90;;;4.77;;
16031;SDS011;8120;48.308;8.914;2023-02-28T06:11:57;5.27;;;3.60;;
16031;SDS011;8120;48.308;8.914;2023-02-28T06:14:25;5.07;;;4.07;;
16031;SDS011;8120;48.308;8.914;2023-02-28T06:16:53;9.60;;;4.90;;
16031;SDS011;8120;48.308;8.914;2023-02-28T06:19:24;9.70;;;5.20;;
16031;SDS011;8120;48.308;8.914;2023-02-28T06:21:52;9.83;;;5.83;;
16031;SDS011;8120;48.308;8.914;2023-02-28T06:24:23;8.93;;;6.43;;
16031;SDS011;8120;48.308;8.914;2023-02-28T06:26:54;7.07;;;4.60;;
16031;SDS011;8120;48.308;8.914;2023-02-28T06:29:21;7.30;;;4.83;;
16031;SDS011;8120;48.308;8.914;2023-02-28T06:31:49;7.27;;;4.43;;
16031;SDS011;8120;48.308;8.914;2023-02-28T06:34:17;10.20;;;5.80;;
16031;SDS011;8120;48.308;8.914;2023-02-28T06:36:45;9.13;;;5.47;;
16031;SDS011;8120;48.308;8.914;2023-02-28T06:39:13;8.73;;;5.23;;
16031;SDS011;8120;48.308;8.914;2023-02-28T06:41:42;12.67;;;6.20;;
16031;SDS011;8120;48.308;8.914;2023-02-28T06:44:21;9.90;;;5.90;;
16031;SDS011;8120;48.308;8.914;2023-02-28T06:46:50;8.60;;;4.77;;
16031;SDS011;8120;48.308;8.914;2023-02-28T06:49:18;10.77;;;5.73;;
16031;SDS011;8120;48.308;8.914;2023-02-28T06:51:45;7.17;;;4.53;;
16031;SDS011;8120;48.308;8.914;2023-02-28T06:54:13;12.27;;;7.03;;
16031;SDS011;8120;48.308;8.914;2023-02-28T06:56:42;10.53;;;7.00;;
16031;SDS011;8120;48.308;8.914;2023-02-28T06:59:10;10.00;;;7.43;;
16031;SDS011;8120;48.308;8.914;2023-02-28T07:01:38;11.30;;;6.70;;
16031;SDS011;8120;48.308;8.914;2023-02-28T07:04:06;9.73;;;6.73;;
16031;SDS011;8120;48.308;8.914;2023-02-28T07:06:34;12.60;;;6.37;;
16031;SDS011;8120;48.308;8.914;2023-02-28T07:09:02;10.70;;;6.27;;
16031;SDS011;8120;48.308;8.914;2023-02-28T07:11:31;10.03;;;6.13;;
16031;SDS011;8120;48.308;8.914;2023-02-28T07:14:00;10.63;;;6.23;;
16031;SDS011;8120;48.308;8.914;2023-02-28T07:16:28;9.53;;;6.33;;
16031;SDS011;8120;48.308;8.914;2023-02-28T07:18:56;8.20;;;5.33;;
16031;SDS011;8120;48.308;8.914;2023-02-28T07:21:23;10.07;;;6.20;;
16031;SDS011;8120;48.308;8.914;2023-02-28T07:23:51;8.00;;;5.37;;
16031;SDS011;8120;48.308;8.914;2023-02-28T07:26:20;11.63;;;6.53;;
16031;SDS011;8120;48.308;8.914;2023-02-28T07:28:47;8.70;;;6.27;;
16031;SDS011;8120;48.308;8.914;2023-02-28T07:31:17;9.40;;;5.90;;
16031;SDS011;8120;48.308;8.914;2023-02-28T07:33:45;13.07;;;5.87;;
16031;SDS011;8120;48.308;8.914;2023-02-28T07:36:14;11.57;;;6.20;;
16031;SDS011;8120;48.308;8.914;2023-02-28T07:38:45;12.67;;;7.27;;
16031;SDS011;8120;48.308;8.914;2023-02-28T07:41:16;9.40;;;5.70;;
16031;SDS011;8120;48.308;8.914;2023-02-28T07:43:45;9.87;;;6.97;;
16031;SDS011;8120;48.308;8.914;2023-02-28T07:46:14;8.77;;;5.40;;
16031;SDS011;8120;48.308;8.914;2023-02-28T07:48:44;10.20;;;6.23;;
16031;SDS011;8120;48.308;8.914;2023-02-28T07:51:12;10.57;;;6.73;;
16031;SDS011;8120;48.308;8.914;2023-02-28T07:53:40;11.60;;;6.07;;
16031;SDS011;8120;48.308;8.914;2023-02-28T07:56:08;11.67;;;7.20;;
16031;SDS011;8120;48.308;8.914;2023-02-28T07:58:36;10.80;;;7.70;;
16031;SDS011;8120;48.308;8.914;2023-02-28T08:01:04;11.57;;;7.03;;
16031;SDS011;8120;48.308;8.914;2023-02-28T08:03:33;9.83;;;6.33;;
16031;SDS011;8120;48.308;8.914;2023-02-28T08:06:02;13.67;;;7.73;;
16031;SDS011;8120;48.308;8.914;2023-02-28T08:08:30;14.93;;;7.63;;
16031;SDS011;8120;48.308;8.914;2023-02-28T08:10:58;16.30;;;6.83;;
16031;SDS011;8120;48.308;8.914;2023-02-28T08:13:27;12.60;;;6.07;;
16031;SDS011;8120;48.308;8.914;2023-02-28T08:15:56;13.87;;;7.93;;
16031;SDS011;8120;48.308;8.914;2023-02-28T08:18:24;12.27;;;7.50;;
16031;SDS011;8120;48.308;8.914;2023-02-28T08:20:52;10.90;;;7.10;;
16031;SDS011;8120;48.308;8.914;2023-02-28T08:23:21;11.60;;;7.03;;
16031;SDS011;8120;48.308;8.914;2023-02-28T08:25:52;10.57;;;7.10;;
16031;SDS011;8120;48.308;8.914;2023-02-28T08:28:20;7.93;;;5.80;;
16031;SDS011;8120;48.308;8.914;2023-02-28T08:30:51;12.03;;;7.23;;
16031;SDS011;8120;48.308;8.914;2023-02-28T08:33:18;11.20;;;5.73;;
16031;SDS011;8120;48.308;8.914;2023-02-28T08:35:46;9.17;;;5.87;;
16031;SDS011;8120;48.308;8.914;2023-02-28T08:38:14;10.40;;;6.70;;
16031;SDS011;8120;48.308;8.914;2023-02-28T08:40:43;11.27;;;6.93;;
16031;SDS011;8120;48.308;8.914;2023-02-28T08:43:11;9.73;;;6.30;;
16031;SDS011;8120;48.308;8.914;2023-02-28T08:45:39;12.13;;;7.30;;
16031;SDS011;8120;48.308;8.914;2023-02-28T08:48:07;12.23;;;5.97;;
16031;SDS011;8120;48.308;8.914;2023-02-28T08:50:35;10.23;;;6.27;;
16031;SDS011;8120;48.308;8.914;2023-02-28T08:53:03;14.03;;;7.47;;
16031;SDS011;8120;48.308;8.914;2023-02-28T08:55:30;14.27;;;7.10;;
16031;SDS011;8120;48.308;8.914;2023-02-28T08:58:00;14.43;;;8.37;;
16031;SDS011;8120;48.308;8.914;2023-02-28T09:00:28;6.97;;;4.07;;
16031;SDS011;8120;48.308;8.914;2023-02-28T09:02:56;16.23;;;7.50;;
16031;SDS011;8120;48.308;8.914;2023-02-28T09:05:23;10.00;;;6.33;;
16031;SDS011;8120;48.308;8.914;2023-02-28T09:07:51;12.77;;;7.63;;
16031;SDS011;8120;48.308;8.914;2023-02-28T09:10:19;11.23;;;6.87;;
16031;SDS011;8120;48.308;8.914;2023-02-28T09:12:47;9.90;;;6.80;;
16031;SDS011;8120;48.308;8.914;2023-02-28T09:15:16;10.47;;;6.33;;
16031;SDS011;8120;48.308;8.914;2023-02-28T09:17:44;11.00;;;7.70;;
16031;SDS011;8120;48.308;8.914;2023-02-28T09:20:13;15.67;;;7.70;;
16031;SDS011;8120;48.308;8.914;2023-02-28T09:22:41;13.63;;;7.63;;
16031;SDS011;8120;48.308;8.914;2023-02-28T09:25:09;11.80;;;7.30;;
16031;SDS011;8120;48.308;8.914;2023-02-28T09:27:37;9.27;;;5.70;;
16031;SDS011;8120;48.308;8.914;2023-02-28T09:30:07;10.33;;;6.83;;
16031;SDS011;8120;48.308;8.914;2023-02-28T09:32:37;8.87;;;6.20;;
16031;SDS011;8120;48.308;8.914;2023-02-28T09:35:06;12.60;;;6.93;;
16031;SDS011;8120;48.308;8.914;2023-02-28T09:37:39;13.77;;;8.27;;
16031;SDS011;8120;48.308;8.914;2023-02-28T09:40:07;10.90;;;7.80;;
16031;SDS011;8120;48.308;8.914;2023-02-28T09:42:37;11.67;;;7.87;;
16031;SDS011;8120;48.308;8.914;2023-02-28T09:45:06;11.23;;;6.07;;
16031;SDS011;8120;48.308;8.914;2023-02-28T09:47:43;10.83;;;7.10;;
16031;SDS011;8120;48.308;8.914;2023-02-28T09:50:16;14.30;;;8.17;;
16031;SDS011;8120;48.308;8.914;2023-02-28T09:52:50;11.97;;;8.30;;
16031;SDS011;8120;48.308;8.914;2023-02-28T09:55:19;11.83;;;6.63;;
16031;SDS011;8120;48.308;8.914;2023-02-28T09:57:49;10.60;;;6.67;;
16031;SDS011;8120;48.308;8.914;2023-02-28T10:00:19;9.77;;;7.13;;
16031;SDS011;8120;48.308;8.914;2023-02-28T10:02:59;8.03;;;5.37;;
16031;SDS011;8120;48.308;8.914;2023-02-28T10:05:34;13.67;;;7.77;;
16031;SDS011;8120;48.308;8.914;2023-02-28T10:08:11;11.23;;;7.50;;
16031;SDS011;8120;48.308;8.914;2023-02-28T10:10:42;9.30;;;6.27;;
16031;SDS011;8120;48.308;8.914;2023-02-28T10:13:14;12.63;;;6.73;;
16031;SDS011;8120;48.308;8.914;2023-02-28T10:15:51;7.90;;;5.77;;
16031;SDS011;8120;48.308;8.914;2023-02-28T10:18:24;11.97;;;8.13;;
16031;SDS011;8120;48.308;8.914;2023-02-28T10:20:56;11.00;;;7.53;;
16031;SDS011;8120;48.308;8.914;2023-02-28T10:23:25;11.37;;;7.37;;
16031;SDS011;8120;48.308;8.914;2023-02-28T10:25:57;14.83;;;8.67;;
16031;SDS011;8120;48.308;8.914;2023-02-28T10:28:28;11.63;;;7.37;;
16031;SDS011;8120;48.308;8.914;2023-02-28T10:30:58;8.77;;;5.87;;
16031;SDS011;8120;48.308;8.914;2023-02-28T10:33:28;11.80;;;7.23;;
16031;SDS011;8120;48.308;8.914;2023-02-28T10:35:58;12.30;;;7.73;;
16031;SDS011;8120;48.308;8.914;2023-02-28T10:38:27;11.63;;;7.50;;
16031;SDS011;8120;48.308;8.914;2023-02-28T10:41:05;9.10;;;6.10;;
16031;SDS011;8120;48.308;8.914;2023-02-28T10:43:35;12.50;;;7.47;;
16031;SDS011;8120;48.308;8.914;2023-02-28T10:46:04;9.17;;;6.17;;
16031;SDS011;8120;48.308;8.914;2023-02-28T10:48:44;12.03;;;7.97;;
16031;SDS011;8120;48.308;8.914;2023-02-28T10:51:16;13.30;;;7.33;;
16031;SDS011;8120;48.308;8.914;2023-02-28T10:53:47;13.70;;;8.20;;
16031;SDS011;8120;48.308;8.914;2023-02-28T10:56:32;10.90;;;7.73;;
16031;SDS011;8120;48.308;8.914;2023-02-28T10:59:01;14.10;;;8.00;;
16031;SDS011;8120;48.308;8.914;2023-02-28T11:01:47;12.43;;;7.60;;
16031;SDS011;8120;48.308;8.914;2023-02-28T11:04:25;9.20;;;6.23;;
16031;SDS011;8120;48.308;8.914;2023-02-28T11:07:04;10.83;;;7.07;;
16031;SDS011;8120;48.308;8.914;2023-02-28T11:09:34;13.27;;;7.53;;
16031;SDS011;8120;48.308;8.914;2023-02-28T11:12:06;10.17;;;6.80;;
16031;SDS011;8120;48.308;8.914;2023-02-28T11:14:36;13.83;;;7.67;;
16031;SDS011;8120;48.308;8.914;2023-02-28T11:17:18;12.23;;;7.23;;
16031;SDS011;8120;48.308;8.914;2023-02-28T11:19:51;11.23;;;7.80;;
16031;SDS011;8120;48.308;8.914;2023-02-28T11:22:23;12.37;;;7.47;;
16031;SDS011;8120;48.308;8.914;2023-02-28T11:24:55;10.93;;;7.20;;
16031;SDS011;8120;48.308;8.914;2023-02-28T11:27:26;11.27;;;6.90;;
16031;SDS011;8120;48.308;8.914;2023-02-28T11:30:26;12.27;;;7.70;;
16031;SDS011;8120;48.308;8.914;2023-02-28T11:33:00;12.57;;;6.93;;
16031;SDS011;8120;48.308;8.914;2023-02-28T11:35:31;12.23;;;7.37;;
16031;SDS011;8120;48.308;8.914;2023-02-28T11:38:04;12.70;;;7.17;;
16031;SDS011;8120;48.308;8.914;2023-02-28T11:40:37;10.47;;;7.20;;
16031;SDS011;8120;48.308;8.914;2023-02-28T11:43:16;12.97;;;8.17;;
16031;SDS011;8120;48.308;8.914;2023-02-28T11:45:57;13.90;;;8.43;;
16031;SDS011;8120;48.308;8.914;2023-02-28T11:48:44;12.37;;;7.17;;
16031;SDS011;8120;48.308;8.914;2023-02-28T11:51:23;9.63;;;5.83;;
16031;SDS011;8120;48.308;8.914;2023-02-28T11:54:11;9.53;;;6.83;;
16031;SDS011;8120;48.308;8.914;2023-02-28T11:56:51;13.53;;;6.70;;
16031;SDS011;8120;48.308;8.914;2023-02-28T11:59:36;12.67;;;8.50;;
16031;SDS011;8120;48.308;8.914;2023-02-28T12:02:19;10.53;;;6.63;;
16031;SDS011;8120;48.308;8.914;2023-02-28T12:04:59;10.17;;;6.07;;
16031;SDS011;8120;48.308;8.914;2023-02-28T12:07:43;8.73;;;5.90;;
16031;SDS011;8120;48.308;8.914;2023-02-28T12:10:21;10.03;;;6.60;;
16031;SDS011;8120;48.308;8.914;2023-02-28T12:12:55;10.30;;;6.57;;
16031;SDS011;8120;48.308;8.914;2023-02-28T12:15:42;12.17;;;7.60;;
16031;SDS011;8120;48.308;8.914;2023-02-28T12:18:38;13.67;;;7.77;;
16031;SDS011;8120;48.308;8.914;2023-02-28T12:21:31;13.80;;;8.70;;
16031;SDS011;8120;48.308;8.914;2023-02-28T12:26:59;10.83;;;7.23;;
16031;SDS011;8120;48.308;8.914;2023-02-28T12:29:30;11.73;;;6.97;;
16031;SDS011;8120;48.308;8.914;2023-02-28T12:32:03;14.17;;;8.37;;
16031;SDS011;8120;48.308;8.914;2023-02-28T12:34:37;16.60;;;9.50;;
16031;SDS011;8120;48.308;8.914;2023-02-28T12:37:09;10.53;;;7.07;;
16031;SDS011;8120;48.308;8.914;2023-02-28T12:39:44;11.10;;;7.70;;
16031;SDS011;8120;48.308;8.914;2023-02-28T12:42:17;11.40;;;6.70;;
16031;SDS011;8120;48.308;8.914;2023-02-28T12:44:52;11.77;;;8.20;;
16031;SDS011;8120;48.308;8.914;2023-02-28T12:47:23;14.13;;;8.43;;
16031;SDS011;8120;48.308;8.914;2023-02-28T12:49:52;14.40;;;8.50;;
16031;SDS011;8120;48.308;8.914;2023-02-28T12:52:25;11.87;;;8.20;;
16031;SDS011;8120;48.308;8.914;2023-02-28T12:55:04;12.40;;;7.23;;
16031;SDS011;8120;48.308;8.914;2023-02-28T12:57:41;13.77;;;7.33;;
16031;SDS011;8120;48.308;8.914;2023-02-28T13:00:15;7.37;;;4.93;;
16031;SDS011;8120;48.308;8.914;2023-02-28T13:02:57;12.37;;;7.57;;
16031;SDS011;8120;48.308;8.914;2023-02-28T13:05:49;12.50;;;7.57;;
16031;SDS011;8120;48.308;8.914;2023-02-28T13:08:38;7.83;;;5.40;;
16031;SDS011;8120;48.308;8.914;2023-02-28T13:11:32;9.43;;;6.03;;
16031;SDS011;8120;48.308;8.914;2023-02-28T13:14:16;9.10;;;5.60;;
16031;SDS011;8120;48.308;8.914;2023-02-28T13:16:54;13.30;;;8.10;;
16031;SDS011;8120;48.308;8.914;2023-02-28T13:19:25;10.17;;;6.57;;
16031;SDS011;8120;48.308;8.914;2023-02-28T13:21:55;11.73;;;7.13;;
16031;SDS011;8120;48.308;8.914;2023-02-28T13:24:38;12.37;;;7.47;;
16031;SDS011;8120;48.308;8.914;2023-02-28T13:33:22;10.87;;;7.17;;
16031;SDS011;8120;48.308;8.914;2023-02-28T13:38:38;9.03;;;7.03;;
16031;SDS011;8120;48.308;8.914;2023-02-28T13:44:20;9.40;;;7.07;;
16031;SDS011;8120;48.308;8.914;2023-02-28T13:49:55;11.23;;;8.40;;
16031;SDS011;8120;48.308;8.914;2023-02-28T13:52:47;11.53;;;7.30;;
16031;SDS011;8120;48.308;8.914;2023-02-28T13:55:25;12.93;;;8.53;;
16031;SDS011;8120;48.308;8.914;2023-02-28T13:58:09;12.97;;;7.80;;
16031;SDS011;8120;48.308;8.914;2023-02-28T14:00:54;10.80;;;6.77;;
16031;SDS011;8120;48.308;8.914;2023-02-28T14:03:47;12.23;;;8.37;;
16031;SDS011;8120;48.308;8.914;2023-02-28T14:06:26;12.33;;;7.97;;
16031;SDS011;8120;48.308;8.914;2023-02-28T14:08:57;12.80;;;8.37;;
16031;SDS011;8120;48.308;8.914;2023-02-28T14:11:28;11.97;;;8.60;;
16031;SDS011;8120;48.308;8.914;2023-02-28T14:13:58;11.27;;;8.27;;
16031;SDS011;8120;48.308;8.914;2023-02-28T14:16:35;13.80;;;9.07;;
16031;SDS011;8120;48.308;8.914;2023-02-28T14:19:10;12.07;;;8.37;;
16031;SDS011;8120;48.308;8.914;2023-02-28T14:21:43;11.87;;;7.70;;
16031;SDS011;8120;48.308;8.914;2023-02-28T14:24:30;9.90;;;6.63;;
16031;SDS011;8120;48.308;8.914;2023-02-28T14:27:29;10.83;;;7.50;;
16031;SDS011;8120;48.308;8.914;2023-02-28T14:30:13;15.93;;;9.17;;
16031;SDS011;8120;48.308;8.914;2023-02-28T14:33:04;12.47;;;8.47;;
16031;SDS011;8120;48.308;8.914;2023-02-28T14:35:48;10.87;;;8.00;;
16031;SDS011;8120;48.308;8.914;2023-02-28T14:38:23;10.63;;;7.70;;
16031;SDS011;8120;48.308;8.914;2023-02-28T14:40:55;12.37;;;7.97;;
16031;SDS011;8120;48.308;8.914;2023-02-28T14:43:25;13.03;;;8.27;;
16031;SDS011;8120;48.308;8.914;2023-02-28T14:45:55;11.50;;;7.43;;
16031;SDS011;8120;48.308;8.914;2023-02-28T14:48:26;14.57;;;8.60;;
16031;SDS011;8120;48.308;8.914;2023-02-28T14:50:56;13.77;;;8.37;;
16031;SDS011;8120;48.308;8.914;2023-02-28T14:53:26;12.60;;;8.23;;
16031;SDS011;8120;48.308;8.914;2023-02-28T14:55:57;13.33;;;8.27;;
16031;SDS011;8120;48.308;8.914;2023-02-28T14:58:26;12.63;;;7.83;;
16031;SDS011;8120;48.308;8.914;2023-02-28T15:00:56;11.57;;;7.60;;
16031;SDS011;8120;48.308;8.914;2023-02-28T15:03:30;11.60;;;7.53;;
16031;SDS011;8120;48.308;8.914;2023-02-28T15:06:00;11.33;;;7.33;;
16031;SDS011;8120;48.308;8.914;2023-02-28T15:08:30;13.60;;;7.07;;
16031;SDS011;8120;48.308;8.914;2023-02-28T15:11:02;12.97;;;7.57;;
16031;SDS011;8120;48.308;8.914;2023-02-28T15:13:34;11.70;;;7.93;;
16031;SDS011;8120;48.308;8.914;2023-02-28T15:16:05;9.70;;;6.37;;
16031;SDS011;8120;48.308;8.914;2023-02-28T15:18:41;11.50;;;7.60;;
16031;SDS011;8120;48.308;8.914;2023-02-28T15:21:15;10.00;;;6.57;;
16031;SDS011;8120;48.308;8.914;2023-02-28T15:23:45;10.80;;;7.97;;
16031;SDS011;8120;48.308;8.914;2023-02-28T15:26:17;12.97;;;7.97;;
16031;SDS011;8120;48.308;8.914;2023-02-28T15:28:48;11.53;;;7.20;;
16031;SDS011;8120;48.308;8.914;2023-02-28T15:31:19;11.87;;;8.10;;
16031;SDS011;8120;48.308;8.914;2023-02-28T15:33:56;10.13;;;6.40;;
16031;SDS011;8120;48.308;8.914;2023-02-28T15:36:26;12.40;;;8.07;;
16031;SDS011;8120;48.308;8.914;2023-02-28T15:38:58;14.33;;;8.77;;
16031;SDS011;8120;48.308;8.914;2023-02-28T15:41:40;10.07;;;7.03;;
16031;SDS011;8120;48.308;8.914;2023-02-28T15:44:24;12.37;;;8.30;;
16031;SDS011;8120;48.308;8.914;2023-02-28T15:46:59;10.47;;;6.87;;